Terminal Aerodrome Forecast
Issued by NWS Twin Cities, MN

Home | Current Version | Previous Version | Text Only | Print | Product List | Glossary Off
Versions: 1 2 3 4 5 6 7 8 9 10 11 12 13 14 15 16 17 18 19 20

914
FTUS43 KMPX 280114 AAA
TAFEAU
TAF AMD
KEAU 280114Z 2801/2824 VRB05KT P6SM SCT009 BKN040 OVC050
     FM280900 14004KT 2SM BR SCT007 OVC010
     FM281400 15006KT 6SM -SHRA BR OVC015=

USA.gov is the U.S. government's official web portal to all federal, state and local government web resources and services.